Time;durP1;ratioP1;P1;durP2;ratioP2;P2;SDS_P1;SDS_P2;PMS_P1;PMS_P2;Temp;Humidity;BMP_temperature;BMP_pressure;BME280_temperature;BME280_humidity;BME280_pressure;Samples;Min_cycle;Max_cycle;Signal;HPM_P1;HPM_P2
2022/07/14 00:00:28;;;;;;;6.40;5.72;;;;;;;20.58;65.80;100021.02;1712755;83;25487;-67
2022/07/14 00:02:56;;;;;;;6.33;5.72;;;;;;;20.56;66.36;100023.37;1711097;83;25630;-67
2022/07/14 00:05:22;;;;;;;7.17;5.87;;;;;;;20.52;66.73;100016.48;1710713;83;25688;-68
2022/07/14 00:07:48;;;;;;;7.87;6.00;;;;;;;20.50;66.88;100024.33;1717368;83;25818;-67
2022/07/14 00:10:14;;;;;;;8.25;6.05;;;;;;;20.46;66.76;100017.41;1709777;83;27589;-67
2022/07/14 00:12:41;;;;;;;6.17;5.58;;;;;;;20.46;66.96;100019.38;1712637;83;25487;-67
2022/07/14 00:15:08;;;;;;;7.17;5.85;;;;;;;20.43;67.00;100016.83;1712120;83;25701;-67
2022/07/14 00:17:34;;;;;;;7.28;5.75;;;;;;;20.42;67.31;100018.58;1710324;83;25769;-67
2022/07/14 00:20:00;;;;;;;6.78;5.80;;;;;;;20.39;67.25;100013.84;1712685;83;25623;-67
2022/07/14 00:22:27;;;;;;;6.87;5.70;;;;;;;20.35;67.50;100005.58;1711993;83;27445;-67
2022/07/14 00:24:54;;;;;;;8.10;5.78;;;;;;;20.31;67.11;100002.01;1710196;83;25827;-67
2022/07/14 00:27:21;;;;;;;8.75;6.40;;;;;;;20.28;66.96;100007.70;1710301;83;25423;-67
2022/07/14 00:29:48;;;;;;;6.95;5.85;;;;;;;20.22;67.71;100007.05;1710271;83;25733;-67
2022/07/14 00:32:14;;;;;;;9.13;6.15;;;;;;;20.15;67.55;100003.67;1713572;83;25660;-67
2022/07/14 00:34:41;;;;;;;8.43;6.37;;;;;;;20.08;67.81;100003.03;1712922;83;26964;-67
2022/07/14 00:37:07;;;;;;;8.85;6.25;;;;;;;20.00;67.86;100005.52;1712576;83;25578;-67
2022/07/14 00:39:54;;;;;;;7.00;6.40;;;;;;;19.95;67.73;100003.92;1710235;83;25519;-67
2022/07/14 00:42:01;;;;;;;6.58;5.72;;;;;;;19.91;68.24;100004.46;1710171;83;25827;-67
2022/07/14 00:44:27;;;;;;;7.50;6.80;;;;;;;19.84;67.75;99997.55;1712181;83;25575;-67
2022/07/14 00:46:53;;;;;;;9.20;7.20;;;;;;;19.81;68.25;99998.89;1714356;83;27416;-67
2022/07/14 00:49:37;;;;;;;8.40;6.47;;;;;;;19.75;68.10;99997.87;1710407;83;25556;-67
2022/07/14 00:52:03;;;;;;;11.10;6.87;;;;;;;19.69;68.34;100000.70;1711236;83;25577;-68
2022/07/14 00:54:30;;;;;;;8.20;6.65;;;;;;;19.58;68.48;99996.50;1711000;83;25701;-67
2022/07/14 00:56:56;;;;;;;7.33;6.20;;;;;;;19.52;68.72;99993.11;1713292;83;25651;-67
2022/07/14 00:59:22;;;;;;;9.40;6.83;;;;;;;19.47;68.65;99990.70;1711105;83;27328;-67
2022/07/14 01:01:48;;;;;;;7.45;6.75;;;;;;;19.40;68.86;99995.53;1710418;83;25820;-67
2022/07/14 01:04:14;;;;;;;7.47;6.70;;;;;;;19.32;68.97;99987.80;1713198;83;25662;-67
2022/07/14 01:06:40;;;;;;;8.88;6.45;;;;;;;19.29;68.98;99987.20;1710578;83;25666;-67
2022/07/14 01:09:06;;;;;;;8.03;6.67;;;;;;;19.23;69.10;99992.22;1711738;83;25719;-67
2022/07/14 01:11:32;;;;;;;7.67;6.85;;;;;;;19.19;68.79;99990.03;1713069;83;27349;-67
2022/07/14 01:14:02;;;;;;;8.13;7.25;;;;;;;19.14;69.31;99982.73;1710220;83;25624;-67
2022/07/14 01:16:26;;;;;;;8.05;7.25;;;;;;;19.10;69.48;99988.14;1711294;82;25635;-67
2022/07/14 01:18:52;;;;;;;10.43;6.65;;;;;;;19.04;69.51;99997.29;1731957;82;25617;-67
2022/07/14 01:21:18;;;;;;;7.90;6.80;;;;;;;19.00;69.66;100005.25;1740362;81;25479;-67
2022/07/14 01:23:44;;;;;;;11.35;7.25;;;;;;;18.96;69.95;100012.06;1750944;81;27530;-67
2022/07/14 01:26:10;;;;;;;8.88;6.95;;;;;;;18.90;70.04;100012.20;1764023;80;25699;-67
2022/07/14 01:28:37;;;;;;;11.50;6.85;;;;;;;18.83;69.95;100004.67;1762164;80;25673;-67
2022/07/14 01:31:03;;;;;;;8.18;6.40;;;;;;;18.79;69.97;100003.80;1763885;80;25728;-67
2022/07/14 01:33:30;;;;;;;7.33;6.60;;;;;;;18.74;69.93;100000.60;1763984;80;25697;-67
2022/07/14 01:35:56;;;;;;;7.90;7.10;;;;;;;18.70;70.31;99999.77;1762176;80;28109;-67
2022/07/14 01:38:21;;;;;;;7.33;6.47;;;;;;;18.65;70.30;99998.14;1765362;80;25623;-67
2022/07/14 01:40:47;;;;;;;8.30;6.78;;;;;;;18.60;70.55;100003.34;1765442;80;25553;-67
2022/07/14 01:43:13;;;;;;;7.40;6.70;;;;;;;18.57;70.88;100003.30;1762076;80;26384;-67
2022/07/14 01:45:40;;;;;;;8.40;7.03;;;;;;;18.52;70.94;100005.00;1764465;80;25536;-67
2022/07/14 01:48:06;;;;;;;8.73;6.97;;;;;;;18.45;70.86;100007.83;1761346;80;28081;-67
2022/07/14 01:50:32;;;;;;;8.98;6.65;;;;;;;18.40;70.83;100003.27;1759447;80;25688;-67
2022/07/14 01:52:58;;;;;;;7.70;6.90;;;;;;;18.38;71.26;100004.21;1764143;80;25613;-67
2022/07/14 01:55:24;;;;;;;8.55;7.12;;;;;;;18.33;71.17;100003.16;1763175;80;26325;-67
2022/07/14 01:57:51;;;;;;;9.78;6.58;;;;;;;18.29;71.36;99997.05;1763708;80;25623;-67
2022/07/14 02:00:18;;;;;;;7.75;6.97;;;;;;;18.27;71.23;99998.00;1765530;80;27288;-67
2022/07/14 02:02:44;;;;;;;7.80;6.50;;;;;;;18.23;71.45;99999.09;1757666;80;26359;-67
2022/07/14 02:05:11;;;;;;;8.08;7.25;;;;;;;18.19;71.43;100002.38;1764978;80;25707;-67
2022/07/14 02:07:37;;;;;;;7.87;7.17;;;;;;;18.13;71.48;100000.50;1772481;80;25543;-67
2022/07/14 02:12:51;;;;;;;9.65;7.83;;;;;;;18.01;71.67;100000.70;1773110;80;28034;-66
2022/07/14 02:15:17;;;;;;;9.10;7.55;;;;;;;17.94;71.60;100005.48;1772404;80;25536;-66
2022/07/14 02:17:43;;;;;;;8.15;7.28;;;;;;;17.89;71.86;99998.39;1774663;80;25789;-66
2022/07/14 02:20:11;;;;;;;7.65;6.95;;;;;;;17.85;71.68;100000.23;1774380;80;27203;-66
2022/07/14 02:22:37;;;;;;;8.60;7.35;;;;;;;17.83;71.91;100005.87;1772459;80;25603;-66
2022/07/14 02:25:05;;;;;;;8.80;7.90;;;;;;;17.80;72.04;100007.38;1774644;80;27404;-66
2022/07/14 02:27:31;;;;;;;8.73;7.42;;;;;;;17.78;71.92;100006.17;1775005;80;25778;-66
2022/07/14 02:29:57;;;;;;;8.55;6.97;;;;;;;17.74;71.84;100006.90;1776113;80;25723;-66
2022/07/14 02:32:24;;;;;;;9.43;7.20;;;;;;;17.72;72.15;100013.31;1774636;80;26406;-66
2022/07/14 02:34:50;;;;;;;9.08;7.58;;;;;;;17.69;72.42;100014.03;1771489;80;25642;-66
2022/07/14 02:37:16;;;;;;;9.50;7.85;;;;;;;17.66;72.61;100011.23;1775440;80;27301;-67
2022/07/14 02:39:42;;;;;;;9.18;7.67;;;;;;;17.62;72.66;100013.91;1772966;80;25805;-66
2022/07/14 02:42:08;;;;;;;9.03;7.40;;;;;;;17.61;73.00;100019.75;1776422;80;25470;-66
2022/07/14 02:44:34;;;;;;;8.33;7.47;;;;;;;17.58;73.28;100017.73;1772427;80;25536;-66
2022/07/14 02:47:00;;;;;;;9.95;7.67;;;;;;;17.58;73.67;100021.25;1750429;80;25655;-66
2022/07/14 02:49:27;;;;;;;9.00;8.10;;;;;;;17.58;73.77;100010.89;1773875;80;28231;-66
2022/07/14 02:51:53;;;;;;;8.90;8.10;;;;;;;17.61;74.04;100015.06;1772663;80;25519;-66
2022/07/14 02:54:19;;;;;;;9.33;7.80;;;;;;;17.62;74.13;100018.02;1768158;80;25653;-66
2022/07/14 02:56:45;;;;;;;10.30;8.10;;;;;;;17.63;74.09;100018.22;1775725;80;25653;-66
2022/07/14 02:59:11;;;;;;;8.70;7.80;;;;;;;17.66;74.07;100022.18;1773177;80;25578;-66
2022/07/14 03:01:38;;;;;;;10.43;7.70;;;;;;;17.66;74.20;100021.59;1776769;80;28041;-66
2022/07/14 03:04:04;;;;;;;14.40;8.40;;;;;;;17.69;74.27;100014.59;1774849;80;25474;-66
2022/07/14 03:06:30;;;;;;;9.83;7.55;;;;;;;17.73;74.47;100019.56;1778260;79;25516;-66
2022/07/14 03:08:56;;;;;;;8.43;7.45;;;;;;;17.77;74.56;100024.52;1773985;80;25644;-66
2022/07/14 03:11:22;;;;;;;8.48;7.37;;;;;;;17.81;74.55;100019.91;1776346;80;25525;-66
2022/07/14 03:13:48;;;;;;;8.53;7.45;;;;;;;17.86;74.62;100020.16;1775680;80;27324;-66
2022/07/14 03:16:15;;;;;;;10.13;8.03;;;;;;;17.91;74.80;100027.54;1774136;80;25715;-66
2022/07/14 03:18:41;;;;;;;12.82;7.80;;;;;;;17.97;74.80;100025.28;1710685;83;25621;-66
2022/07/14 03:21:12;;;;;;;9.38;7.83;;;;;;;18.01;74.72;100025.33;1752322;81;25911;-66
2022/07/14 03:23:39;;;;;;;8.90;7.87;;;;;;;18.05;74.69;100027.56;1754234;81;25555;-66
2022/07/14 03:26:06;;;;;;;8.00;7.30;;;;;;;18.08;74.62;100033.09;1752033;81;27380;-66
2022/07/14 03:28:32;;;;;;;7.92;7.20;;;;;;;18.11;74.43;100028.82;1751438;81;25562;-66
2022/07/14 03:30:59;;;;;;;11.18;8.05;;;;;;;18.14;74.54;100024.58;1753884;81;25750;-66
2022/07/14 03:33:26;;;;;;;8.83;7.70;;;;;;;18.17;74.41;100020.52;1752021;81;25651;-66
2022/07/14 03:35:52;;;;;;;8.58;7.78;;;;;;;18.22;74.56;100029.80;1754814;81;25462;-66
2022/07/14 03:38:19;;;;;;;9.65;7.85;;;;;;;18.27;74.49;100038.28;1751001;81;27396;-66
2022/07/14 03:40:45;;;;;;;8.18;7.25;;;;;;;18.33;74.70;100038.75;1752721;81;25682;-66
2022/07/14 03:43:11;;;;;;;9.23;7.42;;;;;;;18.38;74.45;100041.17;1753060;81;25783;-66
2022/07/14 03:45:38;;;;;;;11.20;7.25;;;;;;;18.42;74.59;100044.75;1750912;81;25639;-66
2022/07/14 03:48:10;;;;;;;8.80;7.33;;;;;;;18.47;74.37;100042.50;1752463;81;25742;-66
2022/07/14 03:50:36;;;;;;;9.78;7.45;;;;;;;18.52;74.43;100046.07;1752513;81;27457;-66
2022/07/14 03:53:04;;;;;;;10.48;7.95;;;;;;;18.58;74.38;100050.09;1747879;81;25600;-66
2022/07/14 03:55:32;;;;;;;8.08;7.12;;;;;;;18.63;74.37;100047.03;1751487;81;25583;-66
2022/07/14 03:58:00;;;;;;;8.50;7.15;;;;;;;18.69;74.06;100050.23;1752559;81;25626;-66
2022/07/14 04:00:27;;;;;;;8.85;7.97;;;;;;;18.73;73.92;100048.32;1750671;81;25575;-66
2022/07/14 04:02:54;;;;;;;11.75;6.95;;;;;;;18.79;73.95;100055.07;1750359;81;27883;-66
2022/07/14 04:05:21;;;;;;;9.18;7.05;;;;;;;18.83;73.91;100055.37;1749286;81;25604;-66
2022/07/14 04:07:48;;;;;;;7.83;7.03;;;;;;;18.90;73.73;100058.79;1750410;81;25724;-66
2022/07/14 04:10:14;;;;;;;9.38;7.03;;;;;;;18.95;73.79;100051.61;1752345;81;25755;-66
2022/07/14 04:12:40;;;;;;;10.32;7.08;;;;;;;19.03;73.75;100057.95;1745430;81;25731;-66
2022/07/14 04:15:08;;;;;;;14.07;7.60;;;;;;;19.07;73.45;100051.95;1753647;81;27279;-66
2022/07/14 04:17:34;;;;;;;8.35;7.10;;;;;;;19.12;73.37;100054.37;1748986;81;25413;-66
2022/07/14 04:20:00;;;;;;;10.50;6.83;;;;;;;19.18;73.18;100051.48;1745250;81;25542;-67
2022/07/14 04:22:27;;;;;;;9.43;6.70;;;;;;;19.23;73.17;100052.53;1753659;81;25626;-68
2022/07/14 04:24:53;;;;;;;9.70;6.65;;;;;;;19.33;72.86;100057.94;1757908;81;25385;-67
2022/07/14 04:27:19;;;;;;;12.73;7.90;;;;;;;19.39;72.58;100057.02;1766528;81;27420;-66
2022/07/14 04:29:46;;;;;;;11.00;8.87;;;;;;;19.45;72.60;100047.89;1766464;81;25602;-67
2022/07/14 04:32:13;;;;;;;11.95;7.20;;;;;;;19.48;72.24;100043.81;1766490;81;25547;-67
2022/07/14 04:34:40;;;;;;;12.70;7.17;;;;;;;19.55;72.15;100054.86;1766484;81;25642;-66
2022/07/14 04:37:06;;;;;;;10.50;6.95;;;;;;;19.60;71.81;100046.87;1766565;81;25415;-67
2022/07/14 04:39:32;;;;;;;11.40;6.92;;;;;;;19.66;71.77;100050.06;1766483;81;28131;-67
2022/07/14 04:41:58;;;;;;;8.43;6.60;;;;;;;19.70;71.40;100052.25;1740334;81;25644;-67
2022/07/14 04:44:24;;;;;;;10.00;6.62;;;;;;;19.74;71.21;100049.78;1766510;81;25635;-67
2022/07/14 04:46:50;;;;;;;7.78;6.60;;;;;;;19.80;71.37;100048.06;1766467;81;25634;-68
2022/07/14 04:52:03;;;;;;;9.65;6.12;;;;;;;19.92;71.07;100041.73;1766499;81;27378;-68
2022/07/14 04:54:33;;;;;;;8.35;6.12;;;;;;;19.99;70.93;100038.27;1766496;81;25549;-68
2022/07/14 04:57:03;;;;;;;7.55;6.22;;;;;;;20.06;70.48;100033.42;1764687;80;25489;-68
2022/07/14 04:59:30;;;;;;;8.73;6.25;;;;;;;20.12;70.30;100039.52;1764342;81;25676;-69
2022/07/14 05:01:57;;;;;;;23.67;15.88;;;;;;;20.21;70.29;100039.79;1764344;81;25395;-68
2022/07/14 05:04:23;;;;;;;7.58;6.70;;;;;;;20.27;70.03;100038.28;1764313;81;27367;-68
2022/07/14 05:06:50;;;;;;;7.33;5.58;;;;;;;20.36;69.61;100040.10;1740182;81;25729;-68
2022/07/14 05:09:19;;;;;;;10.28;5.70;;;;;;;20.42;69.11;100043.30;1764335;81;25492;-68
2022/07/14 05:11:45;;;;;;;11.10;6.05;;;;;;;20.49;69.33;100041.97;1764407;81;26282;-68
2022/07/14 05:14:13;;;;;;;9.03;5.55;;;;;;;20.58;69.13;100041.63;1764318;81;25596;-65
2022/07/14 05:16:39;;;;;;;8.53;5.30;;;;;;;20.66;68.99;100045.44;1764259;81;27936;-65
2022/07/14 05:19:06;;;;;;;8.33;5.47;;;;;;;20.76;68.84;100049.42;1764210;81;25397;-65
2022/07/14 05:21:33;;;;;;;8.78;5.08;;;;;;;20.85;68.29;100038.08;1764267;81;25409;-65
2022/07/14 05:24:00;;;;;;;6.78;5.03;;;;;;;20.96;67.88;100038.13;1764274;81;25674;-65
2022/07/14 05:26:26;;;;;;;7.65;4.55;;;;;;;21.05;67.44;100037.20;1764342;81;25615;-68
2022/07/14 05:28:52;;;;;;;7.22;4.42;;;;;;;21.14;66.99;100040.96;1756315;81;27329;-68
2022/07/14 05:31:19;;;;;;;8.88;4.28;;;;;;;21.24;66.22;100045.71;1750226;81;25573;-68
2022/07/14 05:33:46;;;;;;;6.17;4.42;;;;;;;21.31;65.72;100044.36;1750840;81;25593;-68
2022/07/14 05:36:13;;;;;;;8.88;4.30;;;;;;;21.41;65.93;100048.32;1748428;81;25807;-68
2022/07/14 05:38:39;;;;;;;10.05;4.90;;;;;;;21.54;65.65;100047.39;1750234;81;25617;-68
2022/07/14 05:41:05;;;;;;;7.30;4.08;;;;;;;21.67;65.39;100045.84;1750883;81;29551;-68
2022/07/14 05:43:31;;;;;;;8.30;4.17;;;;;;;21.79;64.98;100040.56;1748449;81;25725;-68
2022/07/14 05:46:07;;;;;;;7.35;4.42;;;;;;;21.92;64.17;100047.27;1750624;81;25405;-68
2022/07/14 05:48:35;;;;;;;5.25;3.80;;;;;;;22.03;63.85;100051.98;1744151;81;26372;-68
2022/07/14 05:51:07;;;;;;;5.33;4.25;;;;;;;22.13;63.64;100047.07;1749848;81;25402;-68
2022/07/14 05:53:33;;;;;;;6.25;4.45;;;;;;;22.28;63.67;100055.55;1751346;81;27296;-68
2022/07/14 05:55:59;;;;;;;6.22;3.75;;;;;;;22.44;63.14;100056.55;1749672;80;25660;-68
2022/07/14 05:58:26;;;;;;;7.67;3.95;;;;;;;22.54;61.93;100055.73;1737080;81;25415;-68
2022/07/14 06:00:52;;;;;;;5.85;4.33;;;;;;;22.63;62.05;100066.92;1752109;80;26422;-68
2022/07/14 06:03:19;;;;;;;6.17;4.30;;;;;;;22.72;61.67;100062.58;1749351;81;25631;-68
2022/07/14 06:05:46;;;;;;;6.53;4.30;;;;;;;22.80;61.22;100061.17;1750986;81;28127;-67
2022/07/14 06:08:12;;;;;;;5.03;3.45;;;;;;;22.91;61.10;100069.61;1752030;81;25549;-67
2022/07/14 06:10:38;;;;;;;7.33;3.80;;;;;;;23.02;61.00;100066.84;1749324;81;25430;-67
2022/07/14 06:13:04;;;;;;;7.67;4.22;;;;;;;23.11;60.74;100061.70;1751208;81;25676;-67
2022/07/14 06:15:31;;;;;;;8.28;4.72;;;;;;;23.25;60.36;100063.61;1751895;81;25691;-68
2022/07/14 06:17:57;;;;;;;5.90;3.37;;;;;;;23.39;60.13;100064.73;1749320;81;27373;-68
2022/07/14 06:20:23;;;;;;;11.00;3.95;;;;;;;23.52;59.24;100070.59;1751029;81;25437;-68
2022/07/14 06:22:49;;;;;;;6.67;4.12;;;;;;;23.64;58.78;100072.28;1751055;81;25620;-68
2022/07/14 06:25:16;;;;;;;5.97;3.90;;;;;;;23.71;58.39;100063.77;1752938;81;26870;-68
2022/07/14 06:27:42;;;;;;;6.35;3.47;;;;;;;23.81;57.60;100069.82;1750127;81;25572;-68
2022/07/14 06:30:11;;;;;;;4.80;3.62;;;;;;;23.94;58.14;100070.95;1738307;81;27265;-68
2022/07/14 06:32:42;;;;;;;4.45;3.67;;;;;;;24.10;57.15;100062.73;1751006;81;25659;-68
2022/07/14 06:35:07;;;;;;;;;;;;;;;24.18;57.01;100058.73;1749310;81;25443;-68
2022/07/14 06:37:36;;;;;;;5.72;3.80;;;;;;;24.27;55.98;100055.49;1739264;81;26278;-68
2022/07/14 06:40:05;;;;;;;7.62;3.33;;;;;;;24.32;56.18;100051.68;1744432;81;25476;-69
2022/07/14 06:42:33;;;;;;;3.72;3.35;;;;;;;24.39;55.75;100048.84;1743867;81;27480;-68
2022/07/14 06:44:59;;;;;;;7.35;3.37;;;;;;;24.52;54.93;100054.66;1758324;81;25713;-68
2022/07/14 06:47:26;;;;;;;4.30;3.02;;;;;;;24.56;55.04;100054.65;1773300;80;25578;-68
2022/07/14 06:49:52;;;;;;;9.40;6.37;;;;;;;24.58;54.94;100054.41;1702476;83;26359;-68
2022/07/14 06:52:18;;;;;;;4.35;3.67;;;;;;;24.70;54.76;100050.34;1752377;81;25449;-68
2022/07/14 06:54:44;;;;;;;6.42;3.42;;;;;;;24.85;54.64;100052.36;1751127;81;27465;-68
2022/07/14 06:57:10;;;;;;;7.85;3.75;;;;;;;25.00;54.34;100051.59;1740755;81;25832;-68
2022/07/14 06:59:36;;;;;;;6.55;5.87;;;;;;;25.12;53.67;100049.66;1735434;82;25620;-69
2022/07/14 07:02:02;;;;;;;4.45;3.25;;;;;;;25.24;53.73;100050.32;1735804;80;25628;-67
2022/07/14 07:04:28;;;;;;;3.77;2.98;;;;;;;25.32;52.56;100053.22;1735552;82;25612;-68
2022/07/14 07:06:55;;;;;;;3.35;2.80;;;;;;;25.33;51.56;100050.00;1759673;81;27391;-67
2022/07/14 07:09:21;;;;;;;4.58;2.20;;;;;;;25.43;51.26;100049.68;1759588;81;25445;-67
2022/07/14 07:11:50;;;;;;;2.60;2.00;;;;;;;25.60;50.51;100043.71;1718608;83;25611;-67
2022/07/14 07:14:18;;;;;;;;;;;;;;;25.70;50.21;100048.91;1737985;82;25754;-68
2022/07/14 07:16:46;;;;;;;2.17;2.08;;;;;;;25.81;48.00;100051.52;1740890;80;25638;-67
2022/07/14 07:19:13;;;;;;;3.58;2.42;;;;;;;25.84;48.75;100050.68;1738276;81;27405;-67
2022/07/14 07:21:40;;;;;;;3.92;2.30;;;;;;;25.99;48.62;100054.82;1735726;81;25665;-67
2022/07/14 07:24:08;;;;;;;4.45;1.98;;;;;;;26.18;48.07;100051.16;1740110;81;25256;-69
2022/07/14 07:26:37;;;;;;;4.45;2.55;;;;;;;26.29;47.66;100046.22;1751170;81;26333;-68
2022/07/14 07:29:04;;;;;;;2.35;2.15;;;;;;;26.42;48.25;100042.99;1758509;81;25559;-68
2022/07/14 07:31:32;;;;;;;6.45;4.87;;;;;;;26.65;47.64;100040.83;1747998;81;27439;-69
2022/07/14 07:34:00;;;;;;;2.62;2.37;;;;;;;26.90;47.69;100048.47;1743492;81;27251;-68
2022/07/14 07:36:26;;;;;;;5.47;2.30;;;;;;;27.10;46.81;100047.86;1735178;82;25640;-68
2022/07/14 07:38:53;;;;;;;3.58;2.42;;;;;;;27.24;47.04;100047.38;1735390;81;25504;-67
2022/07/14 07:41:19;;;;;;;4.42;2.42;;;;;;;27.54;46.95;100043.58;1743700;81;25732;-68
2022/07/14 07:43:45;;;;;;;3.77;2.25;;;;;;;27.73;46.62;100051.67;1752242;81;27419;-68
2022/07/14 07:46:11;;;;;;;3.72;2.30;;;;;;;27.89;45.20;100050.30;1739427;81;25631;-67
2022/07/14 07:48:37;;;;;;;4.70;2.15;;;;;;;28.00;44.77;100050.68;1734926;82;25746;-67
2022/07/14 07:51:03;;;;;;;3.25;2.08;;;;;;;28.16;44.11;100051.27;1735460;81;25806;-68
2022/07/14 07:53:29;;;;;;;8.20;2.42;;;;;;;28.06;42.69;100041.97;1735440;81;25276;-67
2022/07/14 07:55:55;;;;;;;2.90;2.15;;;;;;;28.08;43.97;100040.34;1749928;81;27553;-68
2022/07/14 07:58:21;;;;;;;3.25;2.33;;;;;;;28.34;43.80;100048.05;1766109;81;25520;-68
2022/07/14 08:00:48;;;;;;;3.42;2.10;;;;;;;28.43;43.50;100042.00;1766100;81;25756;-68
2022/07/14 08:03:14;;;;;;;3.35;2.40;;;;;;;28.53;42.65;100035.22;1765959;81;25683;-68
2022/07/14 08:05:43;;;;;;;7.03;2.52;;;;;;;28.57;42.82;100031.16;1766237;81;25532;-69
2022/07/14 08:08:09;;;;;;;3.52;2.20;;;;;;;28.78;42.54;100038.12;1766379;81;27555;-68
2022/07/14 08:10:37;;;;;;;3.35;2.15;;;;;;;28.87;41.80;100037.47;1765949;81;25705;-68
2022/07/14 08:13:04;;;;;;;4.63;2.23;;;;;;;28.88;42.61;100031.47;1766580;81;26282;-69
2022/07/14 08:15:31;;;;;;;4.92;2.20;;;;;;;29.24;42.76;100031.06;1766151;81;25676;-69
2022/07/14 08:17:57;;;;;;;3.95;2.35;;;;;;;29.56;42.06;100037.66;1765862;80;25858;-69
2022/07/14 08:20:23;;;;;;;4.53;2.02;;;;;;;29.65;41.01;100044.72;1766203;81;27510;-69
2022/07/14 08:22:51;;;;;;;3.98;1.90;;;;;;;29.69;40.12;100036.25;1761537;81;27304;-69
2022/07/14 08:25:18;;;;;;;3.87;2.10;;;;;;;29.72;39.44;100038.91;1766019;81;25572;-70
2022/07/14 08:27:44;;;;;;;5.10;2.67;;;;;;;29.82;40.13;100046.80;1766106;81;25461;-70
2022/07/14 08:30:10;;;;;;;4.80;3.17;;;;;;;30.03;39.80;100043.91;1766263;81;25661;-70
2022/07/14 08:32:49;;;;;;;2.30;1.95;;;;;;;29.97;39.21;100044.34;1765991;81;27402;-70
2022/07/14 08:35:14;;;;;;;3.05;2.10;;;;;;;30.09;39.36;100053.91;1764816;81;25742;-70
2022/07/14 08:37:41;;;;;;;;;;;;;;;30.24;38.53;100050.00;1768741;79;25633;-70
2022/07/14 08:40:12;;;;;;;5.20;2.15;;;;;;;30.08;37.83;100043.34;1765378;81;25806;-69
2022/07/14 08:42:45;;;;;;;10.30;6.92;;;;;;;29.94;38.01;100052.97;1766177;81;25654;-69
2022/07/14 08:45:16;;;;;;;2.92;1.90;;;;;;;29.93;37.50;100051.42;1766060;81;27365;-65
2022/07/14 08:47:43;;;;;;;4.10;2.00;;;;;;;29.82;37.24;100047.42;1765860;81;25872;-65
2022/07/14 08:50:14;;;;;;;4.45;2.35;;;;;;;29.96;38.01;100049.73;1766255;81;25579;-65
2022/07/14 08:52:44;;;;;;;3.65;2.08;;;;;;;30.15;37.72;100043.72;1765764;81;25670;-66
2022/07/14 08:55:12;;;;;;;5.03;2.77;;;;;;;30.23;37.69;100051.25;1766054;80;25587;-67
2022/07/14 08:57:41;;;;;;;5.00;1.72;;;;;;;30.07;37.06;100052.16;1765131;80;27408;-68
2022/07/14 09:00:12;;;;;;;3.25;2.00;;;;;;;30.13;36.69;100053.16;1764065;81;25988;-67
2022/07/14 09:02:42;;;;;;;1.75;1.40;;;;;;;30.20;36.15;100049.35;1763762;81;25658;-68
2022/07/14 09:05:08;;;;;;;2.40;2.02;;;;;;;30.30;36.42;100053.16;1740056;81;25771;-68
2022/07/14 09:07:37;;;;;;;2.70;1.85;;;;;;;30.49;36.00;100047.77;1763936;81;25752;-70
2022/07/14 09:10:11;;;;;;;5.28;1.80;;;;;;;30.67;35.88;100054.13;1763936;81;27310;-69
2022/07/14 09:12:38;;;;;;;2.83;2.10;;;;;;;30.96;35.77;100050.33;1763631;81;25831;-67
2022/07/14 09:17:57;;;;;;;3.17;2.30;;;;;;;31.37;34.43;100056.12;1763800;81;26027;-69
2022/07/14 09:20:28;;;;;;;4.33;1.70;;;;;;;31.55;34.46;100059.66;1764131;81;25381;-71
2022/07/14 09:23:00;;;;;;;15.05;2.72;;;;;;;31.68;33.45;100057.37;1764022;81;28032;-67
2022/07/14 09:25:31;;;;;;;6.37;2.20;;;;;;;31.83;33.09;100049.96;1763719;81;25367;-68
2022/07/14 09:27:59;;;;;;;8.65;4.60;;;;;;;32.09;33.36;100060.29;1763776;81;25751;-68
2022/07/14 09:30:26;;;;;;;3.42;2.10;;;;;;;32.38;33.16;100052.85;1763974;81;25501;-67
2022/07/14 09:33:00;;;;;;;5.25;2.25;;;;;;;32.55;32.13;100057.52;1763790;81;25686;-67
2022/07/14 09:35:43;;;;;;;4.33;1.72;;;;;;;32.58;31.04;100059.39;1734747;81;28032;-68
2022/07/14 09:38:22;;;;;;;3.83;1.57;;;;;;;32.48;31.48;100050.07;1704671;82;25855;-66
2022/07/14 09:40:54;;;;;;;3.02;2.00;;;;;;;32.59;29.70;100048.99;1750592;81;25792;-71
2022/07/14 09:46:14;;;;;;;2.40;1.30;;;;;;;32.48;31.28;100043.08;1648761;86;25782;-70
2022/07/14 09:48:42;;;;;;;2.40;1.50;;;;;;;32.55;29.81;100040.73;1673902;85;27707;-70
2022/07/14 09:51:16;;;;;;;4.53;1.82;;;;;;;32.54;30.03;100054.58;1650923;86;25493;-70
2022/07/14 09:53:50;;;;;;;5.17;1.80;;;;;;;32.64;30.08;100053.99;1651070;85;25456;-70
2022/07/14 09:56:22;;;;;;;6.33;2.05;;;;;;;32.64;30.08;100053.99;1650962;86;26290;-70
2022/07/14 09:59:01;;;;;;;7.60;2.05;;;;;;;32.63;29.15;100048.86;1641355;84;25869;-70
2022/07/14 10:01:40;;;;;;;4.67;1.65;;;;;;;32.63;29.15;100048.86;1639770;86;26170;-71
2022/07/14 10:04:13;;;;;;;2.42;1.62;;;;;;;32.82;29.11;100045.41;1648351;86;25977;-69
2022/07/14 10:06:49;;;;;;;2.80;1.55;;;;;;;32.68;29.18;100047.60;1650563;86;25357;-69
2022/07/14 10:09:17;;;;;;;5.20;2.25;;;;;;;32.84;29.63;100051.31;1629506;87;26316;-69
2022/07/14 10:11:52;;;;;;;3.15;1.67;;;;;;;33.01;29.48;100047.55;1649561;86;25729;-70
2022/07/14 10:14:26;;;;;;;2.37;1.60;;;;;;;33.30;29.68;100039.38;1651438;86;26527;-69
2022/07/14 10:17:01;;;;;;;6.42;1.50;;;;;;;33.44;28.63;100035.75;1645016;86;26363;-67
2022/07/14 10:19:33;;;;;;;3.02;1.62;;;;;;;33.55;29.01;100040.22;1622511;88;25756;-69
2022/07/14 10:22:02;;;;;;;4.12;1.60;;;;;;;33.74;28.63;100038.76;1602670;88;25634;-69
2022/07/14 10:24:36;;;;;;;6.00;1.98;;;;;;;33.80;28.39;100041.05;1623479;88;25474;-69
2022/07/14 10:27:28;;;;;;;6.53;2.00;;;;;;;33.87;28.25;100049.12;1547185;92;26175;-69
2022/07/14 10:30:01;;;;;;;4.60;2.10;;;;;;;33.87;26.83;100039.31;1498436;95;26100;-68
2022/07/14 10:33:03;;;;;;;3.33;1.98;;;;;;;33.37;27.69;100037.50;1500121;95;25856;-68
2022/07/14 10:36:04;;;;;;;2.85;1.80;;;;;;;33.27;28.28;100036.14;1501304;95;25994;-66
2022/07/14 10:38:56;;;;;;;4.87;2.33;;;;;;;33.37;28.06;100038.90;1498277;95;25787;-67
2022/07/14 10:42:00;;;;;;;4.58;1.80;;;;;;;33.30;27.86;100035.81;1499091;95;27356;-70
2022/07/14 10:44:43;;;;;;;5.58;1.95;;;;;;;32.99;27.52;100038.21;1493764;94;25761;-70
2022/07/14 10:47:28;;;;;;;3.52;1.85;;;;;;;32.81;28.19;100039.64;1492561;96;25709;-72
2022/07/14 10:50:08;;;;;;;9.63;5.85;;;;;;;32.92;27.54;100028.74;1492763;96;25822;-71
2022/07/14 10:53:00;;;;;;;3.02;2.17;;;;;;;32.95;27.28;100034.17;1493474;96;25637;-72
2022/07/14 10:55:38;;;;;;;3.77;2.27;;;;;;;33.05;27.71;100039.14;1449194;98;26410;-70
2022/07/14 10:58:27;;;;;;;3.77;1.82;;;;;;;33.18;27.12;100038.96;1455021;97;25545;-70
2022/07/14 11:01:12;;;;;;;3.95;1.57;;;;;;;33.33;27.14;100043.27;1454240;98;25776;-70
2022/07/14 11:03:37;;;;;;;6.12;1.90;;;;;;;33.45;26.87;100038.72;1458454;94;25948;-70
2022/07/14 11:06:15;;;;;;;5.03;1.60;;;;;;;33.73;26.80;100037.20;1476536;97;25599;-71
2022/07/14 11:09:27;;;;;;;6.05;1.70;;;;;;;33.91;26.72;100044.73;1474695;97;26021;-71
2022/07/14 11:12:15;;;;;;;5.85;1.82;;;;;;;34.13;26.45;100038.19;1420859;100;26123;-70
2022/07/14 11:14:52;;;;;;;3.20;1.60;;;;;;;34.34;25.20;100039.77;1407191;101;25835;-71
2022/07/14 11:17:46;;;;;;;6.50;1.95;;;;;;;34.32;24.90;100050.71;1324859;106;25856;-70
2022/07/14 11:42:11;;;;;;;2.95;1.50;;;;;;;34.39;22.80;100039.11;1850920;76;26184;-69
2022/07/14 11:44:46;;;;;;;3.67;1.60;;;;;;;34.18;22.94;100033.95;1821487;78;25600;-70
2022/07/14 11:47:33;;;;;;;3.50;1.57;;;;;;;34.00;23.54;100034.84;1823491;78;27944;-69
2022/07/14 11:50:07;;;;;;;2.10;1.20;;;;;;;34.08;23.68;100033.23;1777357;78;25439;-70
2022/07/14 11:52:38;;;;;;;3.87;1.80;;;;;;;34.24;23.46;100037.66;1823825;77;25596;-70
2022/07/14 11:55:10;;;;;;;3.00;1.45;;;;;;;34.39;23.54;100036.30;1728980;83;25629;-71
2022/07/14 11:57:40;;;;;;;4.12;1.40;;;;;;;34.46;22.80;100028.14;1704777;83;25721;-71
2022/07/14 12:00:19;;;;;;;2.85;1.65;;;;;;;34.38;22.80;100024.30;1728886;83;27459;-73
2022/07/14 12:02:57;;;;;;;3.55;1.77;;;;;;;34.28;22.96;100041.72;1670608;84;25533;-70
2022/07/14 12:05:31;;;;;;;3.70;1.52;;;;;;;34.32;23.26;100022.64;1652815;84;25480;-71
2022/07/14 12:08:05;;;;;;;1.90;1.40;;;;;;;34.50;23.37;100034.36;1654394;85;25831;-71